Time;durP1;ratioP1;P1;durP2;ratioP2;P2;SDS_P1;SDS_P2;PMS_P1;PMS_P2;Temp;Humidity;BMP_temperature;BMP_pressure;BME280_temperature;BME280_humidity;BME280_pressure;Samples;Min_cycle;Max_cycle;Signal;HPM_P1;HPM_P2
2022/12/27 00:00:49;;;;;;;;;;;16.90;86.30;;;;;;5114757;28;19908;-43
2022/12/27 00:03:14;;;;;;;;;;;16.90;86.30;;;;;;5114451;28;19908;-42
2022/12/27 00:05:46;;;;;;;;;;;16.90;86.30;;;;;;5114685;28;19915;-44
2022/12/27 00:08:12;;;;;;;;;;;16.90;86.30;;;;;;5114979;28;19907;-43
2022/12/27 00:10:38;;;;;;;;;;;16.90;86.30;;;;;;5114377;28;20290;-44
2022/12/27 00:13:03;;;;;;;;;;;16.90;86.30;;;;;;5114481;28;19912;-43
2022/12/27 00:15:29;;;;;;;;;;;16.90;86.30;;;;;;5114335;28;20409;-44
2022/12/27 00:17:54;;;;;;;;;;;16.90;86.20;;;;;;5114406;28;20018;-42
2022/12/27 00:20:20;;;;;;;;;;;16.90;86.20;;;;;;5114227;28;19914;-43
2022/12/27 00:22:45;;;;;;;;;;;16.90;86.20;;;;;;5114856;28;19908;-44
2022/12/27 00:25:11;;;;;;;;;;;17.00;86.20;;;;;;5114264;28;20019;-42
2022/12/27 00:27:36;;;;;;;;;;;17.00;86.20;;;;;;5114285;28;20093;-42
2022/12/27 00:30:02;;;;;;;;;;;16.90;86.20;;;;;;5114229;28;20389;-44
2022/12/27 00:32:28;;;;;;;;;;;16.90;86.20;;;;;;5114155;28;19908;-43
2022/12/27 00:34:53;;;;;;;;;;;16.90;86.20;;;;;;5114349;28;19954;-42
2022/12/27 00:37:19;;;;;;;;;;;16.90;86.20;;;;;;5114065;28;20023;-43
2022/12/27 00:39:44;;;;;;;;;;;16.90;86.20;;;;;;5114788;28;19907;-47
2022/12/27 00:42:10;;;;;;;;;;;16.90;86.30;;;;;;5114440;28;19954;-42
2022/12/27 00:44:35;;;;;;;;;;;16.90;86.30;;;;;;5114052;28;19947;-45
2022/12/27 00:47:00;;;;;;;;;;;16.90;86.30;;;;;;5114648;28;19954;-42
2022/12/27 00:49:26;;;;;;;;;;;16.90;86.30;;;;;;5117001;28;19957;-43
2022/12/27 00:51:51;;;;;;;;;;;16.90;86.30;;;;;;5118419;28;19908;-43
2022/12/27 00:54:17;;;;;;;;;;;16.90;86.30;;;;;;5118002;28;19920;-42
2022/12/27 00:56:42;;;;;;;;;;;16.90;86.30;;;;;;5118350;28;19914;-42
2022/12/27 00:59:09;;;;;;;;;;;16.90;86.40;;;;;;5118356;28;20262;-45
2022/12/27 01:01:35;;;;;;;;;;;16.90;86.30;;;;;;5117883;28;19908;-43
2022/12/27 01:04:01;;;;;;;;;;;16.90;86.30;;;;;;5117915;28;20311;-42
2022/12/27 01:06:27;;;;;;;;;;;16.90;86.30;;;;;;5118171;28;19908;-43
2022/12/27 01:08:53;;;;;;;;;;;16.90;86.30;;;;;;5118149;28;19958;-44
2022/12/27 01:11:19;;;;;;;;;;;16.90;86.20;;;;;;5118066;28;19915;-42
2022/12/27 01:13:45;;;;;;;;;;;16.90;86.20;;;;;;5117624;28;20006;-42
2022/12/27 01:16:11;;;;;;;;;;;16.90;86.20;;;;;;5117933;28;19908;-43
2022/12/27 01:18:36;;;;;;;;;;;16.90;86.20;;;;;;5099879;28;19908;-42
2022/12/27 01:21:06;;;;;;;;;;;16.90;86.20;;;;;;5117893;28;20046;-43
2022/12/27 01:23:31;;;;;;;;;;;16.90;86.20;;;;;;5117533;28;19908;-42
2022/12/27 01:26:00;;;;;;;;;;;16.90;86.20;;;;;;5117802;28;19965;-42
2022/12/27 01:28:26;;;;;;;;;;;16.90;86.20;;;;;;5117640;28;19908;-42
2022/12/27 01:30:51;;;;;;;;;;;16.90;86.30;;;;;;5117379;28;20271;-42
2022/12/27 01:33:17;;;;;;;;;;;16.90;86.20;;;;;;5117268;28;20022;-43
2022/12/27 01:35:42;;;;;;;;;;;16.90;86.30;;;;;;5117915;28;19908;-43
2022/12/27 01:38:08;;;;;;;;;;;16.90;86.30;;;;;;5117039;28;20388;-43
2022/12/27 01:40:34;;;;;;;;;;;16.90;86.30;;;;;;5117231;28;19908;-42
2022/12/27 01:43:00;;;;;;;;;;;16.90;86.30;;;;;;5117469;28;19916;-43
2022/12/27 01:45:26;;;;;;;;;;;16.90;86.30;;;;;;5117389;28;19996;-43
2022/12/27 01:47:55;;;;;;;;;;;16.90;86.30;;;;;;5117323;28;19908;-43
2022/12/27 01:50:41;;;;;;;;;;;16.90;86.30;;;;;;5117311;28;20343;-43
2022/12/27 01:53:10;;;;;;;;;;;16.90;86.30;;;;;;5116381;28;19919;-42
2022/12/27 01:55:51;;;;;;;;;;;16.90;86.30;;;;;;5117016;28;19908;-44
2022/12/27 01:58:26;;;;;;;;;;;16.90;86.20;;;;;;5116908;28;20347;-42
2022/12/27 02:00:51;;;;;;;;;;;16.90;86.20;;;;;;5116578;28;20354;-43
2022/12/27 02:03:33;;;;;;;;;;;16.90;86.20;;;;;;5116740;28;19994;-43
2022/12/27 02:06:00;;;;;;;;;;;16.90;86.10;;;;;;5116773;28;19908;-46
2022/12/27 02:08:25;;;;;;;;;;;16.90;86.10;;;;;;5116974;28;19908;-44
2022/12/27 02:10:51;;;;;;;;;;;16.90;86.10;;;;;;5116900;28;19929;-42
2022/12/27 02:13:17;;;;;;;;;;;16.90;86.10;;;;;;5116768;28;20493;-42
2022/12/27 02:15:43;;;;;;;;;;;16.90;86.10;;;;;;5116589;28;19946;-43
2022/12/27 02:18:08;;;;;;;;;;;16.90;86.00;;;;;;5116780;28;19915;-43
2022/12/27 02:20:41;;;;;;;;;;;16.90;86.00;;;;;;5116770;28;19908;-45
2022/12/27 02:26:21;;;;;;;;;;;16.90;86.10;;;;;;5116459;28;19957;-43
2022/12/27 02:28:59;;;;;;;;;;;16.90;86.10;;;;;;5116545;28;19907;-43
2022/12/27 02:31:36;;;;;;;;;;;16.90;86.10;;;;;;5116610;28;20026;-42
2022/12/27 02:34:04;;;;;;;;;;;16.90;86.10;;;;;;5116663;28;19915;-42
2022/12/27 02:36:32;;;;;;;;;;;16.90;86.10;;;;;;5116159;28;19915;-44
2022/12/27 02:38:59;;;;;;;;;;;16.80;86.10;;;;;;5116488;28;19924;-43
2022/12/27 02:55:33;;;;;;;;;;;16.90;86.20;;;;;;5116148;28;20396;-42
2022/12/27 02:57:59;;;;;;;;;;;16.90;86.60;;;;;;5097794;28;19914;-44
2022/12/27 03:03:22;;;;;;;;;;;16.90;86.10;;;;;;5116029;28;20301;-42
2022/12/27 03:09:07;;;;;;;;;;;16.90;86.10;;;;;;5115622;28;19931;-43
2022/12/27 03:17:16;;;;;;;;;;;16.90;86.00;;;;;;5115717;28;19915;-42
2022/12/27 03:25:30;;;;;;;;;;;16.90;86.00;;;;;;5115286;28;20015;-43
2022/12/27 03:33:49;;;;;;;;;;;16.90;86.00;;;;;;5115185;28;20023;-43
2022/12/27 03:39:06;;;;;;;;;;;16.90;86.00;;;;;;5114627;28;20368;-45
2022/12/27 03:44:25;;;;;;;;;;;16.90;86.10;;;;;;5114091;28;19922;-42
2022/12/27 03:46:54;;;;;;;;;;;16.80;86.00;;;;;;5114342;28;19915;-43
2022/12/27 03:49:22;;;;;;;;;;;16.90;86.10;;;;;;5113956;28;19908;-43
2022/12/27 03:52:06;;;;;;;;;;;16.80;86.10;;;;;;5113931;28;19920;-42
2022/12/27 03:54:34;;;;;;;;;;;16.90;86.10;;;;;;5114116;28;20385;-45
2022/12/27 03:57:08;;;;;;;;;;;16.90;86.10;;;;;;5114145;28;19908;-44
2022/12/27 03:59:33;;;;;;;;;;;16.90;86.10;;;;;;5114107;28;19908;-42
2022/12/27 04:01:59;;;;;;;;;;;16.90;86.00;;;;;;5114015;28;19908;-44
2022/12/27 04:04:24;;;;;;;;;;;16.90;86.00;;;;;;5113764;28;20301;-42
2022/12/27 04:06:50;;;;;;;;;;;16.90;86.00;;;;;;5114047;28;19908;-42
2022/12/27 04:36:37;;;;;;;;;;;16.90;86.10;;;;;;5113366;28;19918;-44
2022/12/27 04:39:03;;;;;;;;;;;16.80;86.10;;;;;;5052133;28;1737022;-43
2022/12/27 04:55:15;;;;;;;;;;;16.80;86.00;;;;;;5114043;28;20009;-43
2022/12/27 04:57:40;;;;;;;;;;;16.80;86.00;;;;;;5114235;28;19915;-44
2022/12/27 05:02:50;;;;;;;;;;;16.80;85.90;;;;;;5114042;28;19915;-42
2022/12/27 05:05:16;;;;;;;;;;;16.80;85.90;;;;;;5114195;28;20312;-42
2022/12/27 05:15:55;;;;;;;;;;;16.80;85.90;;;;;;5114211;28;19919;-42
2022/12/27 05:18:21;;;;;;;;;;;16.80;85.90;;;;;;5114081;28;19907;-42
2022/12/27 05:20:46;;;;;;;;;;;16.90;86.00;;;;;;5114075;28;19908;-42
2022/12/27 05:25:56;;;;;;;;;;;16.80;85.90;;;;;;5114040;28;20361;-44
2022/12/27 05:28:21;;;;;;;;;;;16.90;85.90;;;;;;5095787;28;19908;-42
2022/12/27 05:30:47;;;;;;;;;;;16.90;85.90;;;;;;5113695;28;20017;-42
2022/12/27 05:33:12;;;;;;;;;;;16.90;85.90;;;;;;5113526;28;20362;-42
2022/12/27 05:35:39;;;;;;;;;;;16.90;86.00;;;;;;5116901;28;19919;-45
2022/12/27 05:38:05;;;;;;;;;;;16.90;86.00;;;;;;5117553;28;19974;-41
2022/12/27 05:40:30;;;;;;;;;;;16.80;85.90;;;;;;5117517;28;19908;-44
2022/12/27 05:42:59;;;;;;;;;;;16.80;85.90;;;;;;5117432;28;20309;-41
2022/12/27 05:45:24;;;;;;;;;;;16.90;86.00;;;;;;5117336;28;20270;-41
2022/12/27 05:47:50;;;;;;;;;;;16.90;86.00;;;;;;5116982;28;19908;-43
2022/12/27 05:50:16;;;;;;;;;;;16.80;85.90;;;;;;5117340;28;19913;-42
2022/12/27 05:52:41;;;;;;;;;;;16.90;85.90;;;;;;5116924;28;20421;-42
2022/12/27 05:55:07;;;;;;;;;;;16.90;85.90;;;;;;5116744;28;20290;-42
2022/12/27 05:57:33;;;;;;;;;;;16.90;85.90;;;;;;5098837;28;19912;-42
2022/12/27 05:59:58;;;;;;;;;;;16.90;85.90;;;;;;5116766;28;19908;-42
2022/12/27 06:02:24;;;;;;;;;;;16.80;85.80;;;;;;5117429;28;19915;-43
2022/12/27 06:04:49;;;;;;;;;;;16.80;85.80;;;;;;5098670;28;19935;-42
2022/12/27 06:07:15;;;;;;;;;;;16.80;85.80;;;;;;5116889;28;19959;-43
2022/12/27 06:09:40;;;;;;;;;;;16.80;85.80;;;;;;5116977;28;20420;-42
2022/12/27 06:12:06;;;;;;;;;;;16.80;85.90;;;;;;5116590;28;20278;-42
2022/12/27 06:14:31;;;;;;;;;;;16.80;85.80;;;;;;5116705;28;19964;-44
2022/12/27 06:16:57;;;;;;;;;;;16.80;85.90;;;;;;5116742;28;20404;-43
2022/12/27 06:19:22;;;;;;;;;;;16.80;85.90;;;;;;5098713;28;19907;-44
2022/12/27 06:21:48;;;;;;;;;;;16.80;85.90;;;;;;5116353;28;19947;-43
2022/12/27 06:24:14;;;;;;;;;;;16.80;85.90;;;;;;5116548;28;19908;-43
2022/12/27 06:26:41;;;;;;;;;;;16.80;85.90;;;;;;5116058;28;19908;-45
2022/12/27 06:29:06;;;;;;;;;;;16.80;86.00;;;;;;5116834;28;19908;-42
2022/12/27 06:31:32;;;;;;;;;;;16.70;85.90;;;;;;5116495;28;19912;-42
2022/12/27 06:33:57;;;;;;;;;;;16.70;85.90;;;;;;5116370;28;19923;-44
2022/12/27 06:36:25;;;;;;;;;;;16.70;86.00;;;;;;5116309;28;20346;-42
2022/12/27 06:38:50;;;;;;;;;;;16.70;86.00;;;;;;5115956;28;19920;-42
2022/12/27 06:41:16;;;;;;;;;;;16.70;86.00;;;;;;5116152;28;19912;-43
2022/12/27 06:43:42;;;;;;;;;;;16.70;86.00;;;;;;5115888;28;20273;-43
2022/12/27 06:46:09;;;;;;;;;;;16.70;86.00;;;;;;5115179;28;20006;-42
2022/12/27 06:48:34;;;;;;;;;;;16.70;86.00;;;;;;5116070;28;20354;-43
2022/12/27 06:51:02;;;;;;;;;;;16.80;86.00;;;;;;5116068;28;19924;-43
2022/12/27 06:53:28;;;;;;;;;;;16.80;86.00;;;;;;5097709;28;19938;-43
2022/12/27 06:55:53;;;;;;;;;;;16.80;85.90;;;;;;5115934;28;19916;-43
2022/12/27 06:58:19;;;;;;;;;;;16.80;85.90;;;;;;5115819;28;19955;-42
2022/12/27 07:00:44;;;;;;;;;;;16.80;85.90;;;;;;5115501;28;19918;-43
2022/12/27 07:03:10;;;;;;;;;;;16.80;85.90;;;;;;5115588;28;19915;-43
2022/12/27 07:05:37;;;;;;;;;;;16.80;85.90;;;;;;5115897;28;19922;-44
2022/12/27 07:08:03;;;;;;;;;;;16.80;85.90;;;;;;5115594;28;19930;-44
2022/12/27 07:10:28;;;;;;;;;;;16.80;85.90;;;;;;5115313;28;19908;-45
2022/12/27 07:12:54;;;;;;;;;;;16.80;85.90;;;;;;5115107;28;20044;-44
2022/12/27 07:15:20;;;;;;;;;;;16.80;85.90;;;;;;5115165;28;19919;-43
2022/12/27 07:17:45;;;;;;;;;;;16.80;85.90;;;;;;5115100;28;19908;-44
2022/12/27 07:20:11;;;;;;;;;;;16.80;85.90;;;;;;5115713;28;19907;-47
2022/12/27 07:22:36;;;;;;;;;;;16.80;85.90;;;;;;5115365;28;20332;-43
2022/12/27 07:25:02;;;;;;;;;;;16.80;85.90;;;;;;5115538;28;20278;-44
2022/12/27 07:27:27;;;;;;;;;;;16.70;85.90;;;;;;5115606;28;20010;-43
2022/12/27 07:29:52;;;;;;;;;;;16.70;86.00;;;;;;5115220;28;19908;-42
2022/12/27 07:32:18;;;;;;;;;;;16.70;86.00;;;;;;5115184;28;19947;-44
2022/12/27 07:34:43;;;;;;;;;;;16.70;86.00;;;;;;5096800;28;19960;-44
2022/12/27 07:37:09;;;;;;;;;;;16.70;86.00;;;;;;5096882;28;20010;-43
2022/12/27 07:39:34;;;;;;;;;;;16.70;86.10;;;;;;5115318;28;19989;-43
2022/12/27 07:42:00;;;;;;;;;;;16.70;86.10;;;;;;5115058;28;19918;-45
2022/12/27 07:44:25;;;;;;;;;;;16.70;86.10;;;;;;5114628;28;19911;-43
2022/12/27 07:46:51;;;;;;;;;;;16.70;86.10;;;;;;5114907;28;19915;-44
2022/12/27 07:49:16;;;;;;;;;;;16.70;86.00;;;;;;5114894;28;20402;-43
2022/12/27 07:51:42;;;;;;;;;;;16.70;86.00;;;;;;5114877;28;19957;-45
2022/12/27 07:54:08;;;;;;;;;;;16.70;86.00;;;;;;5114872;28;19915;-45
2022/12/27 07:56:33;;;;;;;;;;;16.70;86.00;;;;;;5114669;28;20012;-43
2022/12/27 07:58:59;;;;;;;;;;;16.70;86.00;;;;;;5114757;28;19999;-45
2022/12/27 08:01:25;;;;;;;;;;;16.70;86.00;;;;;;5114449;28;19915;-43
2022/12/27 08:03:51;;;;;;;;;;;16.70;85.90;;;;;;5114543;28;19915;-43
2022/12/27 08:06:27;;;;;;;;;;;16.70;85.90;;;;;;5114633;28;19908;-43
2022/12/27 08:08:54;;;;;;;;;;;16.80;85.90;;;;;;5114646;28;19908;-45
2022/12/27 08:11:19;;;;;;;;;;;16.80;85.90;;;;;;5114210;28;19961;-43
2022/12/27 08:13:45;;;;;;;;;;;16.80;85.90;;;;;;5114708;28;19915;-46
2022/12/27 08:16:14;;;;;;;;;;;16.80;86.00;;;;;;5114419;28;20342;-43
2022/12/27 08:18:40;;;;;;;;;;;16.80;86.00;;;;;;5114207;28;19961;-44
2022/12/27 08:21:05;;;;;;;;;;;16.80;85.90;;;;;;5114373;28;19911;-45
2022/12/27 08:23:31;;;;;;;;;;;16.80;86.00;;;;;;5114324;28;19954;-43
2022/12/27 08:25:56;;;;;;;;;;;16.70;86.00;;;;;;5114767;28;19908;-44
2022/12/27 08:28:22;;;;;;;;;;;16.70;86.00;;;;;;5113997;28;19908;-43
2022/12/27 08:30:47;;;;;;;;;;;16.70;86.60;;;;;;5114491;28;19912;-45
2022/12/27 08:33:14;;;;;;;;;;;16.70;86.10;;;;;;5114331;28;19934;-48
2022/12/27 08:35:40;;;;;;;;;;;16.70;86.20;;;;;;5114554;28;19959;-43
2022/12/27 08:38:05;;;;;;;;;;;16.70;86.10;;;;;;5095892;28;20277;-45
2022/12/27 08:40:31;;;;;;;;;;;16.70;86.10;;;;;;5114276;28;19914;-44
2022/12/27 08:42:57;;;;;;;;;;;16.70;86.10;;;;;;5114043;28;19914;-44
2022/12/27 08:45:23;;;;;;;;;;;16.70;86.10;;;;;;5113930;28;20002;-44
2022/12/27 08:47:48;;;;;;;;;;;16.80;86.10;;;;;;5114052;28;19947;-44
2022/12/27 08:50:14;;;;;;;;;;;16.70;86.00;;;;;;5113938;28;19915;-43
2022/12/27 08:52:39;;;;;;;;;;;16.80;86.00;;;;;;5114294;28;20358;-44
2022/12/27 08:55:05;;;;;;;;;;;16.80;86.00;;;;;;5113692;28;19966;-44
2022/12/27 08:57:30;;;;;;;;;;;16.80;85.90;;;;;;5114379;28;19911;-43
2022/12/27 08:59:56;;;;;;;;;;;16.80;85.90;;;;;;5114092;28;20025;-44
2022/12/27 09:02:21;;;;;;;;;;;16.80;85.90;;;;;;5113788;28;19919;-44
2022/12/27 09:04:47;;;;;;;;;;;16.80;85.90;;;;;;5114000;28;20417;-43
2022/12/27 09:07:12;;;;;;;;;;;16.80;85.90;;;;;;5113753;28;19908;-43
2022/12/27 09:09:38;;;;;;;;;;;16.70;85.90;;;;;;5115635;28;19950;-43
2022/12/27 09:12:04;;;;;;;;;;;16.70;86.00;;;;;;5117639;28;19930;-45
2022/12/27 09:14:29;;;;;;;;;;;16.70;86.00;;;;;;5117737;28;19919;-43
2022/12/27 09:16:55;;;;;;;;;;;16.70;86.10;;;;;;5117769;28;20428;-43
2022/12/27 09:19:20;;;;;;;;;;;16.70;86.20;;;;;;5117728;28;19907;-46
2022/12/27 09:21:45;;;;;;;;;;;16.70;86.20;;;;;;5117433;28;20354;-43
2022/12/27 09:24:12;;;;;;;;;;;16.70;86.20;;;;;;5117738;28;19912;-43
2022/12/27 09:26:37;;;;;;;;;;;16.60;86.20;;;;;;5117524;28;19912;-43
2022/12/27 09:29:03;;;;;;;;;;;16.70;86.30;;;;;;5117542;28;19908;-45
2022/12/27 09:31:28;;;;;;;;;;;16.60;86.30;;;;;;5117249;28;20393;-44
2022/12/27 09:33:55;;;;;;;;;;;16.60;86.20;;;;;;5117119;28;19911;-44
2022/12/27 09:36:21;;;;;;;;;;;16.70;86.30;;;;;;5117266;28;20006;-43
2022/12/27 09:38:47;;;;;;;;;;;16.70;86.30;;;;;;5117375;28;19920;-43
2022/12/27 09:41:25;;;;;;;;;;;16.70;86.20;;;;;;5117764;28;19915;-44
2022/12/27 09:43:51;;;;;;;;;;;16.70;86.20;;;;;;5116997;28;20266;-44
2022/12/27 09:46:18;;;;;;;;;;;16.70;86.10;;;;;;5116936;28;19915;-44
2022/12/27 09:48:44;;;;;;;;;;;16.70;86.10;;;;;;5098896;28;20286;-47
2022/12/27 09:51:09;;;;;;;;;;;16.80;86.10;;;;;;5116969;28;19908;-43
2022/12/27 09:53:40;;;;;;;;;;;16.80;86.00;;;;;;5117062;28;19915;-44
2022/12/27 09:56:08;;;;;;;;;;;16.80;86.00;;;;;;5117029;28;20354;-43
2022/12/27 09:58:41;;;;;;;;;;;16.80;86.00;;;;;;5098771;28;19908;-44
2022/12/27 10:01:17;;;;;;;;;;;16.80;86.00;;;;;;5116986;28;19908;-43
2022/12/27 10:03:43;;;;;;;;;;;16.80;85.90;;;;;;5117362;28;19908;-44
2022/12/27 10:06:08;;;;;;;;;;;16.80;85.90;;;;;;5116819;28;20030;-43
2022/12/27 10:08:53;;;;;;;;;;;16.80;85.90;;;;;;5116681;28;19908;-43
2022/12/27 10:11:36;;;;;;;;;;;16.80;86.00;;;;;;5116501;28;19908;-44
2022/12/27 10:14:17;;;;;;;;;;;16.80;86.00;;;;;;5098347;28;20308;-44
2022/12/27 10:16:42;;;;;;;;;;;16.80;86.00;;;;;;5116542;28;20340;-43
2022/12/27 10:19:25;;;;;;;;;;;16.70;86.00;;;;;;5098410;28;19908;-43
2022/12/27 10:21:53;;;;;;;;;;;16.70;86.10;;;;;;5116361;28;19914;-45
2022/12/27 10:24:22;;;;;;;;;;;16.70;86.20;;;;;;5098213;28;19915;-43
2022/12/27 10:26:48;;;;;;;;;;;16.70;86.20;;;;;;5116389;28;19911;-43
2022/12/27 10:29:20;;;;;;;;;;;16.70;86.30;;;;;;5116050;28;19914;-43
2022/12/27 10:31:46;;;;;;;;;;;16.60;86.20;;;;;;5115985;28;19912;-44
2022/12/27 10:34:13;;;;;;;;;;;16.70;86.30;;;;;;5116156;28;19912;-44
2022/12/27 10:36:40;;;;;;;;;;;16.60;86.20;;;;;;5115888;28;19960;-45
2022/12/27 10:39:14;;;;;;;;;;;16.60;86.20;;;;;;5116162;28;20378;-45
2022/12/27 10:41:59;;;;;;;;;;;16.70;86.20;;;;;;5115874;28;20003;-44
2022/12/27 10:44:24;;;;;;;;;;;16.70;86.20;;;;;;5097812;28;20377;-45
2022/12/27 10:46:51;;;;;;;;;;;16.70;86.10;;;;;;5115800;28;19912;-44
2022/12/27 10:49:20;;;;;;;;;;;16.70;86.00;;;;;;5115947;28;20358;-43
2022/12/27 10:51:45;;;;;;;;;;;16.70;86.00;;;;;;5115870;28;19976;-47
2022/12/27 10:54:12;;;;;;;;;;;16.70;86.30;;;;;;5115544;28;20358;-45
2022/12/27 10:56:40;;;;;;;;;;;16.70;86.10;;;;;;5115792;28;19938;-44
2022/12/27 10:59:08;;;;;;;;;;;16.70;86.20;;;;;;5115581;28;20355;-44
2022/12/27 11:01:34;;;;;;;;;;;16.70;86.20;;;;;;5115504;28;20016;-45
2022/12/27 11:04:19;;;;;;;;;;;16.70;86.20;;;;;;5115618;28;20269;-46
2022/12/27 11:06:46;;;;;;;;;;;16.70;86.20;;;;;;5115398;28;19908;-44
2022/12/27 11:09:31;;;;;;;;;;;16.70;86.20;;;;;;5115568;28;20291;-44
2022/12/27 11:12:12;;;;;;;;;;;16.70;86.30;;;;;;5115396;28;20256;-44
2022/12/27 11:14:38;;;;;;;;;;;16.70;86.30;;;;;;5097134;28;19916;-45
2022/12/27 11:17:10;;;;;;;;;;;16.70;86.30;;;;;;5115143;28;19972;-46
2022/12/27 11:19:36;;;;;;;;;;;16.60;86.30;;;;;;5115339;28;19908;-45
2022/12/27 11:22:04;;;;;;;;;;;16.70;86.30;;;;;;5115351;28;20002;-43
2022/12/27 11:24:30;;;;;;;;;;;16.70;86.30;;;;;;5115180;28;19908;-46
2022/12/27 11:26:57;;;;;;;;;;;16.70;86.20;;;;;;5114907;28;20384;-44
2022/12/27 11:29:27;;;;;;;;;;;16.70;86.10;;;;;;5115150;28;19914;-44
2022/12/27 11:31:53;;;;;;;;;;;16.70;86.10;;;;;;5096412;28;19954;-44
2022/12/27 11:34:28;;;;;;;;;;;16.80;86.10;;;;;;5114774;28;20370;-44
2022/12/27 11:36:54;;;;;;;;;;;16.80;86.00;;;;;;5114798;28;20290;-43
2022/12/27 11:39:39;;;;;;;;;;;16.80;86.00;;;;;;5096669;28;20007;-45
2022/12/27 11:42:06;;;;;;;;;;;16.80;86.00;;;;;;5096572;28;20278;-46
2022/12/27 11:44:35;;;;;;;;;;;16.80;85.90;;;;;;5114563;28;19908;-45
2022/12/27 11:47:04;;;;;;;;;;;16.80;85.90;;;;;;5114601;28;20277;-44
2022/12/27 11:49:39;;;;;;;;;;;16.80;85.90;;;;;;5114628;28;19998;-45
2022/12/27 11:52:24;;;;;;;;;;;16.80;86.00;;;;;;5114483;28;19965;-43
2022/12/27 11:55:09;;;;;;;;;;;16.80;86.00;;;;;;5100112;28;19911;-44
2022/12/27 11:57:52;;;;;;;;;;;16.70;86.00;;;;;;5114377;28;19991;-45
2022/12/27 12:00:22;;;;;;;;;;;16.70;86.00;;;;;;5114711;28;19912;-44
2022/12/27 12:02:50;;;;;;;;;;;16.70;86.00;;;;;;5114606;28;19958;-44
2022/12/27 12:05:40;;;;;;;;;;;16.70;86.10;;;;;;5114699;28;20262;-44
2022/12/27 12:08:24;;;;;;;;;;;16.70;86.10;;;;;;5114367;28;19914;-44
2022/12/27 12:10:59;;;;;;;;;;;16.70;86.20;;;;;;5114517;28;19961;-45
2022/12/27 12:13:30;;;;;;;;;;;16.70;86.20;;;;;;5114453;28;20007;-44
2022/12/27 12:16:20;;;;;;;;;;;16.60;86.20;;;;;;5114467;28;19916;-44
2022/12/27 12:18:54;;;;;;;;;;;16.70;86.10;;;;;;5095841;28;19908;-46
2022/12/27 12:21:25;;;;;;;;;;;16.70;86.00;;;;;;5114295;28;20226;-43
2022/12/27 12:23:57;;;;;;;;;;;16.70;85.90;;;;;;5096269;28;19908;-43
2022/12/27 12:26:25;;;;;;;;;;;16.80;86.00;;;;;;5113973;28;19907;-43
2022/12/27 12:29:09;;;;;;;;;;;16.80;85.90;;;;;;5114432;28;20269;-43
2022/12/27 12:31:45;;;;;;;;;;;16.80;85.90;;;;;;5113973;28;19915;-46
2022/12/27 12:34:22;;;;;;;;;;;16.80;85.90;;;;;;5114420;28;19918;-44
2022/12/27 12:36:54;;;;;;;;;;;16.80;85.90;;;;;;5114035;28;20014;-45
2022/12/27 12:39:39;;;;;;;;;;;16.70;85.80;;;;;;5095676;28;19920;-45
2022/12/27 12:42:39;;;;;;;;;;;16.80;85.90;;;;;;5113909;28;19908;-43
2022/12/27 12:45:05;;;;;;;;;;;16.70;85.80;;;;;;5033512;28;19909;-43
2022/12/27 12:47:49;;;;;;;;;;;16.70;85.90;;;;;;5100754;28;19908;-43
2022/12/27 12:50:14;;;;;;;;;;;16.70;86.00;;;;;;5118047;28;19912;-44
2022/12/27 12:52:46;;;;;;;;;;;16.70;86.10;;;;;;5117946;28;19953;-45
2022/12/27 12:55:11;;;;;;;;;;;16.60;86.00;;;;;;5118093;28;19912;-46
2022/12/27 12:57:37;;;;;;;;;;;16.60;86.10;;;;;;5117795;28;19916;-44
2022/12/27 13:00:08;;;;;;;;;;;16.70;86.20;;;;;;5118075;28;19919;-44
2022/12/27 13:02:46;;;;;;;;;;;16.60;86.20;;;;;;5117726;28;19907;-46
2022/12/27 13:05:29;;;;;;;;;;;16.60;86.20;;;;;;5117828;28;20358;-45
2022/12/27 13:08:13;;;;;;;;;;;16.60;86.30;;;;;;5117962;28;19908;-45
2022/12/27 13:11:05;;;;;;;;;;;16.60;86.30;;;;;;5117726;28;20351;-43
2022/12/27 13:13:49;;;;;;;;;;;16.60;86.40;;;;;;5113612;28;19919;-44
2022/12/27 13:16:15;;;;;;;;;;;16.50;86.40;;;;;;5117808;28;19992;-44
2022/12/27 13:18:58;;;;;;;;;;;16.60;86.40;;;;;;5117349;28;20350;-44
2022/12/27 13:21:27;;;;;;;;;;;16.50;86.40;;;;;;5117544;28;20248;-43
2022/12/27 13:24:06;;;;;;;;;;;16.50;86.40;;;;;;5117581;28;19962;-45
2022/12/27 13:26:34;;;;;;;;;;;16.60;86.40;;;;;;5117651;28;19995;-46
2022/12/27 13:29:18;;;;;;;;;;;16.50;86.30;;;;;;5099301;28;20270;-47
2022/12/27 13:31:56;;;;;;;;;;;16.50;86.30;;;;;;5117181;28;19912;-45
2022/12/27 13:34:57;;;;;;;;;;;16.50;86.30;;;;;;5116918;28;20309;-45
2022/12/27 13:37:31;;;;;;;;;;;16.50;86.30;;;;;;5034028;28;20455;-45
2022/12/27 13:40:06;;;;;;;;;;;16.60;86.30;;;;;;5104915;28;19907;-47
2022/12/27 13:42:46;;;;;;;;;;;16.60;86.30;;;;;;5117322;28;19908;-44
2022/12/27 13:45:30;;;;;;;;;;;16.60;86.20;;;;;;5117614;28;19907;-48
2022/12/27 13:48:08;;;;;;;;;;;16.70;86.20;;;;;;5116710;28;20309;-47
2022/12/27 13:50:48;;;;;;;;;;;16.70;86.10;;;;;;5116753;28;19912;-47
2022/12/27 13:53:35;;;;;;;;;;;16.70;86.00;;;;;;5117249;28;20002;-44
2022/12/27 13:56:04;;;;;;;;;;;16.70;86.00;;;;;;5116442;28;20008;-44
2022/12/27 13:58:35;;;;;;;;;;;16.70;85.90;;;;;;5116768;28;19908;-44
2022/12/27 14:01:16;;;;;;;;;;;16.70;85.90;;;;;;5116887;28;19908;-46
2022/12/27 14:03:53;;;;;;;;;;;16.80;85.80;;;;;;5098533;28;19962;-48
2022/12/27 14:06:19;;;;;;;;;;;16.80;85.80;;;;;;5116501;28;19930;-46
2022/12/27 14:09:01;;;;;;;;;;;16.80;85.80;;;;;;5116374;28;20409;-45
2022/12/27 14:11:27;;;;;;;;;;;16.80;85.70;;;;;;5116465;28;20359;-44
2022/12/27 14:13:52;;;;;;;;;;;16.80;85.60;;;;;;5116137;28;19918;-45
2022/12/27 14:16:24;;;;;;;;;;;16.80;85.60;;;;;;5116229;28;19969;-43
2022/12/27 14:18:49;;;;;;;;;;;16.80;85.50;;;;;;5116667;28;19907;-43
2022/12/27 14:21:24;;;;;;;;;;;16.90;85.50;;;;;;5116543;28;19915;-45
2022/12/27 14:23:49;;;;;;;;;;;16.90;85.50;;;;;;5116486;28;19918;-43
2022/12/27 14:26:33;;;;;;;;;;;16.90;85.50;;;;;;5116382;28;19908;-44
2022/12/27 14:29:08;;;;;;;;;;;16.90;85.50;;;;;;5116366;28;19930;-43
2022/12/27 14:31:33;;;;;;;;;;;16.90;85.40;;;;;;5116165;28;20012;-42
2022/12/27 14:34:05;;;;;;;;;;;16.80;85.40;;;;;;5115954;28;20002;-42
2022/12/27 14:36:39;;;;;;;;;;;16.90;85.40;;;;;;5115334;28;19918;-43
2022/12/27 14:39:22;;;;;;;;;;;16.90;85.40;;;;;;5115981;28;20342;-44
2022/12/27 14:42:07;;;;;;;;;;;16.90;85.40;;;;;;5115930;28;19973;-45
2022/12/27 14:44:32;;;;;;;;;;;16.90;85.60;;;;;;5116313;28;20258;-44
2022/12/27 14:47:16;;;;;;;;;;;16.90;85.30;;;;;;5115903;28;19912;-43
2022/12/27 14:49:47;;;;;;;;;;;16.90;85.30;;;;;;5116064;28;20053;-42
2022/12/27 14:52:28;;;;;;;;;;;16.90;85.20;;;;;;5115647;28;19907;-43
2022/12/27 14:54:56;;;;;;;;;;;16.90;85.20;;;;;;5115571;28;20354;-44
2022/12/27 14:57:30;;;;;;;;;;;16.90;85.20;;;;;;5115448;28;19919;-44
2022/12/27 15:00:05;;;;;;;;;;;16.90;85.10;;;;;;5097390;28;19954;-43
2022/12/27 15:02:49;;;;;;;;;;;16.90;85.10;;;;;;5116117;28;19915;-42
2022/12/27 15:05:15;;;;;;;;;;;17.00;85.10;;;;;;5097343;28;19908;-42
2022/12/27 15:08:02;;;;;;;;;;;17.00;85.00;;;;;;5114766;28;20251;-46
2022/12/27 15:10:39;;;;;;;;;;;17.00;84.90;;;;;;5115778;28;19974;-44
2022/12/27 15:13:13;;;;;;;;;;;17.00;84.90;;;;;;5115223;28;19908;-42
2022/12/27 15:15:57;;;;;;;;;;;17.00;84.90;;;;;;5096726;28;20069;-43
2022/12/27 15:18:40;;;;;;;;;;;17.00;84.90;;;;;;5115213;28;19912;-43
2022/12/27 15:21:19;;;;;;;;;;;17.00;84.90;;;;;;5097014;28;19912;-43
2022/12/27 15:24:13;;;;;;;;;;;17.00;84.80;;;;;;5115245;28;19968;-43
2022/12/27 15:26:50;;;;;;;;;;;17.00;84.80;;;;;;5097079;28;20331;-45
2022/12/27 15:29:16;;;;;;;;;;;17.00;84.80;;;;;;5115149;28;19911;-44
2022/12/27 15:32:02;;;;;;;;;;;17.10;84.90;;;;;;5115236;28;19908;-43
2022/12/27 15:34:46;;;;;;;;;;;17.00;84.80;;;;;;5100531;28;19916;-43
2022/12/27 15:37:31;;;;;;;;;;;17.00;84.80;;;;;;5096662;28;20010;-43
2022/12/27 15:39:56;;;;;;;;;;;17.00;84.80;;;;;;5115069;28;19930;-43
2022/12/27 15:42:40;;;;;;;;;;;17.00;84.90;;;;;;5115047;28;20354;-43
2022/12/27 15:45:08;;;;;;;;;;;17.00;84.80;;;;;;5115264;28;20350;-42
2022/12/27 15:47:47;;;;;;;;;;;17.00;84.90;;;;;;5114434;28;19975;-43
2022/12/27 15:50:27;;;;;;;;;;;17.00;84.90;;;;;;5114778;28;19943;-45
2022/12/27 15:53:03;;;;;;;;;;;16.90;84.90;;;;;;5115267;28;19908;-44
2022/12/27 15:55:28;;;;;;;;;;;16.90;84.90;;;;;;5114505;28;19923;-44
2022/12/27 15:58:00;;;;;;;;;;;16.90;84.90;;;;;;5114373;28;19912;-45
2022/12/27 16:00:27;;;;;;;;;;;16.90;85.00;;;;;;5114563;28;20369;-46
2022/12/27 16:02:57;;;;;;;;;;;16.90;85.00;;;;;;5114602;28;19908;-44
2022/12/27 16:05:22;;;;;;;;;;;16.90;85.00;;;;;;5096459;28;20356;-43
2022/12/27 16:07:49;;;;;;;;;;;16.90;85.00;;;;;;5114499;28;19912;-43
2022/12/27 16:10:34;;;;;;;;;;;16.90;85.00;;;;;;5114478;28;19907;-42
2022/12/27 16:12:59;;;;;;;;;;;16.90;84.90;;;;;;5114046;28;20413;-43